sensor_id;sensor_type;location;lat;lon;timestamp;temperature;humidity
67005;HTU21D;53920;51.094;5.902;2023-09-19T00:00:39;17.14;68.13
67005;HTU21D;53920;51.094;5.902;2023-09-19T00:03:07;17.16;68.07
67005;HTU21D;53920;51.094;5.902;2023-09-19T00:05:35;17.17;67.94
67005;HTU21D;53920;51.094;5.902;2023-09-19T00:08:02;17.13;68.03
67005;HTU21D;53920;51.094;5.902;2023-09-19T00:10:32;17.15;67.97
67005;HTU21D;53920;51.094;5.902;2023-09-19T00:13:02;17.10;67.96
67005;HTU21D;53920;51.094;5.902;2023-09-19T00:15:40;17.13;67.93
67005;HTU21D;53920;51.094;5.902;2023-09-19T00:18:07;17.10;68.00
67005;HTU21D;53920;51.094;5.902;2023-09-19T00:20:38;17.10;67.97
67005;HTU21D;53920;51.094;5.902;2023-09-19T00:23:05;17.13;67.94
67005;HTU21D;53920;51.094;5.902;2023-09-19T00:25:31;17.07;68.08
67005;HTU21D;53920;51.094;5.902;2023-09-19T00:27:57;17.05;68.17
67005;HTU21D;53920;51.094;5.902;2023-09-19T00:30:23;17.08;68.13
67005;HTU21D;53920;51.094;5.902;2023-09-19T00:32:51;16.98;68.53
67005;HTU21D;53920;51.094;5.902;2023-09-19T00:35:23;17.05;68.20
67005;HTU21D;53920;51.094;5.902;2023-09-19T00:37:53;17.03;68.26
67005;HTU21D;53920;51.094;5.902;2023-09-19T01:16:19;16.87;69.33
67005;HTU21D;53920;51.094;5.902;2023-09-19T01:19:12;16.94;68.97
67005;HTU21D;53920;51.094;5.902;2023-09-19T01:30:10;16.95;68.45
67005;HTU21D;53920;51.094;5.902;2023-09-19T01:32:38;16.98;68.20
67005;HTU21D;53920;51.094;5.902;2023-09-19T01:35:06;17.00;67.86
67005;HTU21D;53920;51.094;5.902;2023-09-19T01:37:38;16.91;67.84
67005;HTU21D;53920;51.094;5.902;2023-09-19T01:40:05;16.93;67.60
67005;HTU21D;53920;51.094;5.902;2023-09-19T01:51:00;16.93;67.87
67005;HTU21D;53920;51.094;5.902;2023-09-19T01:53:30;16.84;68.13
67005;HTU21D;53920;51.094;5.902;2023-09-19T01:56:00;16.75;68.47
67005;HTU21D;53920;51.094;5.902;2023-09-19T01:58:34;16.74;68.49
67005;HTU21D;53920;51.094;5.902;2023-09-19T02:01:04;16.61;68.68
67005;HTU21D;53920;51.094;5.902;2023-09-19T02:03:33;16.73;68.47
67005;HTU21D;53920;51.094;5.902;2023-09-19T02:06:00;16.72;68.39
67005;HTU21D;53920;51.094;5.902;2023-09-19T02:08:26;16.66;68.42
67005;HTU21D;53920;51.094;5.902;2023-09-19T02:10:53;16.67;68.34
67005;HTU21D;53920;51.094;5.902;2023-09-19T02:13:20;16.66;68.27
67005;HTU21D;53920;51.094;5.902;2023-09-19T02:15:48;16.64;68.30
67005;HTU21D;53920;51.094;5.902;2023-09-19T02:18:14;16.58;68.47
67005;HTU21D;53920;51.094;5.902;2023-09-19T02:20:43;16.63;68.42
67005;HTU21D;53920;51.094;5.902;2023-09-19T02:23:10;16.62;68.55
67005;HTU21D;53920;51.094;5.902;2023-09-19T02:25:36;16.59;68.64
67005;HTU21D;53920;51.094;5.902;2023-09-19T02:28:03;16.58;68.63
67005;HTU21D;53920;51.094;5.902;2023-09-19T02:30:31;16.56;68.77
67005;HTU21D;53920;51.094;5.902;2023-09-19T02:32:57;16.49;69.07
67005;HTU21D;53920;51.094;5.902;2023-09-19T02:35:23;16.46;69.26
67005;HTU21D;53920;51.094;5.902;2023-09-19T02:37:51;16.47;69.20
67005;HTU21D;53920;51.094;5.902;2023-09-19T02:40:17;16.43;69.28
67005;HTU21D;53920;51.094;5.902;2023-09-19T02:42:48;16.34;69.50
67005;HTU21D;53920;51.094;5.902;2023-09-19T02:45:34;16.44;69.26
67005;HTU21D;53920;51.094;5.902;2023-09-19T02:48:25;16.37;69.46
67005;HTU21D;53920;51.094;5.902;2023-09-19T02:50:52;16.34;69.55
67005;HTU21D;53920;51.094;5.902;2023-09-19T02:53:19;16.31;69.55
67005;HTU21D;53920;51.094;5.902;2023-09-19T02:55:45;16.28;69.57
67005;HTU21D;53920;51.094;5.902;2023-09-19T02:58:12;16.28;69.52
67005;HTU21D;53920;51.094;5.902;2023-09-19T03:00:40;16.26;69.65
67005;HTU21D;53920;51.094;5.902;2023-09-19T03:03:08;16.26;69.64
67005;HTU21D;53920;51.094;5.902;2023-09-19T03:05:34;16.24;69.61
67005;HTU21D;53920;51.094;5.902;2023-09-19T03:08:01;16.28;69.52
67005;HTU21D;53920;51.094;5.902;2023-09-19T03:10:27;16.21;69.71
67005;HTU21D;53920;51.094;5.902;2023-09-19T03:12:56;16.14;69.94
67005;HTU21D;53920;51.094;5.902;2023-09-19T03:15:22;16.04;70.11
67005;HTU21D;53920;51.094;5.902;2023-09-19T03:17:50;16.11;69.87
67005;HTU21D;53920;51.094;5.902;2023-09-19T03:20:21;16.07;70.05
67005;HTU21D;53920;51.094;5.902;2023-09-19T03:22:48;16.17;69.67
67005;HTU21D;53920;51.094;5.902;2023-09-19T03:25:15;16.21;69.50
67005;HTU21D;53920;51.094;5.902;2023-09-19T03:27:44;16.10;69.90
67005;HTU21D;53920;51.094;5.902;2023-09-19T03:30:12;16.13;69.68
67005;HTU21D;53920;51.094;5.902;2023-09-19T03:32:47;16.05;70.02
67005;HTU21D;53920;51.094;5.902;2023-09-19T03:35:16;16.18;69.61
67005;HTU21D;53920;51.094;5.902;2023-09-19T03:37:43;16.13;69.83
67005;HTU21D;53920;51.094;5.902;2023-09-19T03:40:10;16.14;69.73
67005;HTU21D;53920;51.094;5.902;2023-09-19T03:42:41;16.16;69.78
67005;HTU21D;53920;51.094;5.902;2023-09-19T03:45:09;16.16;69.61
67005;HTU21D;53920;51.094;5.902;2023-09-19T03:47:41;16.14;69.75
67005;HTU21D;53920;51.094;5.902;2023-09-19T03:50:09;16.14;69.85
67005;HTU21D;53920;51.094;5.902;2023-09-19T03:52:41;16.10;69.97
67005;HTU21D;53920;51.094;5.902;2023-09-19T03:55:07;16.02;70.26
67005;HTU21D;53920;51.094;5.902;2023-09-19T03:57:35;15.96;70.35
67005;HTU21D;53920;51.094;5.902;2023-09-19T04:00:02;15.91;70.44
67005;HTU21D;53920;51.094;5.902;2023-09-19T04:02:40;16.01;70.11
67005;HTU21D;53920;51.094;5.902;2023-09-19T04:05:06;15.89;70.30
67005;HTU21D;53920;51.094;5.902;2023-09-19T04:07:32;15.89;70.40
67005;HTU21D;53920;51.094;5.902;2023-09-19T04:10:00;15.85;70.22
67005;HTU21D;53920;51.094;5.902;2023-09-19T04:12:27;15.99;69.73
67005;HTU21D;53920;51.094;5.902;2023-09-19T04:14:52;15.91;69.91
67005;HTU21D;53920;51.094;5.902;2023-09-19T04:17:18;16.04;69.45
67005;HTU21D;53920;51.094;5.902;2023-09-19T04:19:44;15.98;69.51
67005;HTU21D;53920;51.094;5.902;2023-09-19T04:22:11;16.08;69.02
67005;HTU21D;53920;51.094;5.902;2023-09-19T04:24:38;16.13;68.88
67005;HTU21D;53920;51.094;5.902;2023-09-19T04:27:05;16.14;68.70
67005;HTU21D;53920;51.094;5.902;2023-09-19T04:29:31;16.13;68.63
67005;HTU21D;53920;51.094;5.902;2023-09-19T04:31:57;16.13;68.31
67005;HTU21D;53920;51.094;5.902;2023-09-19T04:34:23;16.08;68.30
67005;HTU21D;53920;51.094;5.902;2023-09-19T04:36:50;16.16;67.78
67005;HTU21D;53920;51.094;5.902;2023-09-19T04:39:16;16.20;67.54
67005;HTU21D;53920;51.094;5.902;2023-09-19T04:41:42;16.25;67.30
67005;HTU21D;53920;51.094;5.902;2023-09-19T04:44:08;16.37;66.91
67005;HTU21D;53920;51.094;5.902;2023-09-19T04:46:34;16.32;66.88
67005;HTU21D;53920;51.094;5.902;2023-09-19T04:49:00;16.31;66.81
67005;HTU21D;53920;51.094;5.902;2023-09-19T04:51:26;16.42;66.43
67005;HTU21D;53920;51.094;5.902;2023-09-19T04:53:55;16.30;66.42
67005;HTU21D;53920;51.094;5.902;2023-09-19T04:56:21;16.39;66.30
67005;HTU21D;53920;51.094;5.902;2023-09-19T04:58:48;16.26;66.56
67005;HTU21D;53920;51.094;5.902;2023-09-19T05:01:14;16.19;66.74
67005;HTU21D;53920;51.094;5.902;2023-09-19T05:03:41;16.24;66.61
67005;HTU21D;53920;51.094;5.902;2023-09-19T05:06:06;16.33;66.32
67005;HTU21D;53920;51.094;5.902;2023-09-19T05:08:32;16.36;66.47
67005;HTU21D;53920;51.094;5.902;2023-09-19T05:11:01;16.39;66.40
67005;HTU21D;53920;51.094;5.902;2023-09-19T05:13:27;16.48;66.15
67005;HTU21D;53920;51.094;5.902;2023-09-19T05:15:53;16.54;66.12
67005;HTU21D;53920;51.094;5.902;2023-09-19T05:18:19;16.52;66.12
67005;HTU21D;53920;51.094;5.902;2023-09-19T05:20:45;16.57;66.02
67005;HTU21D;53920;51.094;5.902;2023-09-19T05:23:11;16.58;66.15
67005;HTU21D;53920;51.094;5.902;2023-09-19T05:25:40;16.65;65.95
67005;HTU21D;53920;51.094;5.902;2023-09-19T05:28:07;16.62;66.16
67005;HTU21D;53920;51.094;5.902;2023-09-19T05:30:34;16.63;66.13
67005;HTU21D;53920;51.094;5.902;2023-09-19T05:33:05;16.66;66.18
67005;HTU21D;53920;51.094;5.902;2023-09-19T05:35:31;16.59;66.30
67005;HTU21D;53920;51.094;5.902;2023-09-19T05:37:58;16.52;66.56
67005;HTU21D;53920;51.094;5.902;2023-09-19T05:40:25;16.48;66.75
67005;HTU21D;53920;51.094;5.902;2023-09-19T05:42:51;16.48;66.96
67005;HTU21D;53920;51.094;5.902;2023-09-19T05:45:17;16.69;66.38
67005;HTU21D;53920;51.094;5.902;2023-09-19T05:47:48;16.45;67.10
67005;HTU21D;53920;51.094;5.902;2023-09-19T05:50:15;16.52;66.96
67005;HTU21D;53920;51.094;5.902;2023-09-19T05:52:42;16.52;66.98
67005;HTU21D;53920;51.094;5.902;2023-09-19T05:55:11;16.49;67.11
67005;HTU21D;53920;51.094;5.902;2023-09-19T05:57:38;16.49;67.33
67005;HTU21D;53920;51.094;5.902;2023-09-19T06:00:10;16.36;67.70
67005;HTU21D;53920;51.094;5.902;2023-09-19T06:02:39;16.37;67.65
67005;HTU21D;53920;51.094;5.902;2023-09-19T06:05:06;16.19;68.29
67005;HTU21D;53920;51.094;5.902;2023-09-19T06:07:35;16.25;68.11
67005;HTU21D;53920;51.094;5.902;2023-09-19T06:10:03;16.33;67.86
67005;HTU21D;53920;51.094;5.902;2023-09-19T06:12:40;16.17;68.44
67005;HTU21D;53920;51.094;5.902;2023-09-19T06:15:08;16.33;68.07
67005;HTU21D;53920;51.094;5.902;2023-09-19T06:17:34;16.30;68.29
67005;HTU21D;53920;51.094;5.902;2023-09-19T06:20:06;16.32;68.16
67005;HTU21D;53920;51.094;5.902;2023-09-19T06:22:44;16.39;68.02
67005;HTU21D;53920;51.094;5.902;2023-09-19T06:25:12;16.45;67.95
67005;HTU21D;53920;51.094;5.902;2023-09-19T06:27:41;16.54;67.75
67005;HTU21D;53920;51.094;5.902;2023-09-19T06:30:10;16.60;67.46
67005;HTU21D;53920;51.094;5.902;2023-09-19T06:32:37;16.62;67.41
67005;HTU21D;53920;51.094;5.902;2023-09-19T06:35:04;16.54;67.65
67005;HTU21D;53920;51.094;5.902;2023-09-19T06:37:33;16.55;67.69
67005;HTU21D;53920;51.094;5.902;2023-09-19T06:40:00;16.51;67.72
67005;HTU21D;53920;51.094;5.902;2023-09-19T06:42:26;16.60;67.61
67005;HTU21D;53920;51.094;5.902;2023-09-19T06:44:54;16.54;67.64
67005;HTU21D;53920;51.094;5.902;2023-09-19T06:47:19;16.56;67.61
67005;HTU21D;53920;51.094;5.902;2023-09-19T06:49:46;16.66;67.42
67005;HTU21D;53920;51.094;5.902;2023-09-19T06:52:12;16.75;67.28
67005;HTU21D;53920;51.094;5.902;2023-09-19T06:54:38;16.87;66.91
67005;HTU21D;53920;51.094;5.902;2023-09-19T06:57:05;16.98;66.71
67005;HTU21D;53920;51.094;5.902;2023-09-19T06:59:31;17.00;66.51
67005;HTU21D;53920;51.094;5.902;2023-09-19T07:01:58;17.13;66.27
67005;HTU21D;53920;51.094;5.902;2023-09-19T07:04:25;17.17;66.07
67005;HTU21D;53920;51.094;5.902;2023-09-19T07:06:51;17.17;66.02
67005;HTU21D;53920;51.094;5.902;2023-09-19T07:09:17;17.25;65.84
67005;HTU21D;53920;51.094;5.902;2023-09-19T07:11:45;17.35;65.60
67005;HTU21D;53920;51.094;5.902;2023-09-19T07:14:13;17.43;65.36
67005;HTU21D;53920;51.094;5.902;2023-09-19T07:16:39;17.49;65.17
67005;HTU21D;53920;51.094;5.902;2023-09-19T07:19:08;17.65;64.62
67005;HTU21D;53920;51.094;5.902;2023-09-19T07:21:34;17.75;64.34
67005;HTU21D;53920;51.094;5.902;2023-09-19T07:24:01;17.80;64.14
67005;HTU21D;53920;51.094;5.902;2023-09-19T07:26:29;17.91;63.90
67005;HTU21D;53920;51.094;5.902;2023-09-19T07:28:55;18.06;63.47
67005;HTU21D;53920;51.094;5.902;2023-09-19T07:31:22;18.22;62.95
67005;HTU21D;53920;51.094;5.902;2023-09-19T07:33:49;18.28;62.61
67005;HTU21D;53920;51.094;5.902;2023-09-19T07:36:15;18.42;62.37
67005;HTU21D;53920;51.094;5.902;2023-09-19T07:38:41;18.58;61.90
67005;HTU21D;53920;51.094;5.902;2023-09-19T07:41:08;18.76;61.40
67005;HTU21D;53920;51.094;5.902;2023-09-19T07:43:37;19.01;60.73
67005;HTU21D;53920;51.094;5.902;2023-09-19T07:46:07;19.27;59.93
67005;HTU21D;53920;51.094;5.902;2023-09-19T07:48:38;19.46;59.38
67005;HTU21D;53920;51.094;5.902;2023-09-19T07:51:05;19.60;58.99
67005;HTU21D;53920;51.094;5.902;2023-09-19T07:53:35;19.80;58.38
67005;HTU21D;53920;51.094;5.902;2023-09-19T07:56:05;20.03;57.55
67005;HTU21D;53920;51.094;5.902;2023-09-19T07:58:31;20.10;57.35
67005;HTU21D;53920;51.094;5.902;2023-09-19T08:01:09;20.29;56.90
67005;HTU21D;53920;51.094;5.902;2023-09-19T08:03:38;20.25;55.38
67005;HTU21D;53920;51.094;5.902;2023-09-19T08:06:07;20.26;56.32
67005;HTU21D;53920;51.094;5.902;2023-09-19T08:08:36;20.62;55.46
67005;HTU21D;53920;51.094;5.902;2023-09-19T08:11:04;21.22;54.28
67005;HTU21D;53920;51.094;5.902;2023-09-19T08:13:39;21.60;53.27
67005;HTU21D;53920;51.094;5.902;2023-09-19T08:16:09;21.51;50.87
67005;HTU21D;53920;51.094;5.902;2023-09-19T08:18:36;21.30;53.23
67005;HTU21D;53920;51.094;5.902;2023-09-19T08:21:06;21.52;52.72
67005;HTU21D;53920;51.094;5.902;2023-09-19T08:23:40;21.66;51.06
67005;HTU21D;53920;51.094;5.902;2023-09-19T08:26:06;21.40;52.34
67005;HTU21D;53920;51.094;5.902;2023-09-19T08:28:35;21.28;52.75
67005;HTU21D;53920;51.094;5.902;2023-09-19T08:31:04;21.24;52.58
67005;HTU21D;53920;51.094;5.902;2023-09-19T08:33:32;21.00;53.52
67005;HTU21D;53920;51.094;5.902;2023-09-19T08:36:03;20.66;54.20
67005;HTU21D;53920;51.094;5.902;2023-09-19T08:38:34;20.95;53.72
67005;HTU21D;53920;51.094;5.902;2023-09-19T08:41:04;20.84;53.69
67005;HTU21D;53920;51.094;5.902;2023-09-19T08:43:31;21.01;53.17
67005;HTU21D;53920;51.094;5.902;2023-09-19T08:48:31;21.19;52.87
67005;HTU21D;53920;51.094;5.902;2023-09-19T08:51:03;21.62;51.84
67005;HTU21D;53920;51.094;5.902;2023-09-19T08:53:54;21.94;50.16
67005;HTU21D;53920;51.094;5.902;2023-09-19T08:56:26;22.03;50.27
67005;HTU21D;53920;51.094;5.902;2023-09-19T08:59:04;22.43;49.42
67005;HTU21D;53920;51.094;5.902;2023-09-19T09:01:34;22.79;48.76
67005;HTU21D;53920;51.094;5.902;2023-09-19T09:04:01;22.97;48.23
67005;HTU21D;53920;51.094;5.902;2023-09-19T09:06:29;23.15;47.59
67005;HTU21D;53920;51.094;5.902;2023-09-19T09:08:55;23.31;47.39
67005;HTU21D;53920;51.094;5.902;2023-09-19T09:11:22;23.54;46.80
67005;HTU21D;53920;51.094;5.902;2023-09-19T09:13:50;23.69;46.40
67005;HTU21D;53920;51.094;5.902;2023-09-19T09:16:19;23.67;45.94
67005;HTU21D;53920;51.094;5.902;2023-09-19T09:18:45;23.31;45.46
67005;HTU21D;53920;51.094;5.902;2023-09-19T09:21:12;22.78;47.41
67005;HTU21D;53920;51.094;5.902;2023-09-19T09:23:41;22.80;47.80
67005;HTU21D;53920;51.094;5.902;2023-09-19T09:26:09;23.01;47.19
67005;HTU21D;53920;51.094;5.902;2023-09-19T09:28:44;23.38;46.61
67005;HTU21D;53920;51.094;5.902;2023-09-19T09:31:24;23.89;45.61
67005;HTU21D;53920;51.094;5.902;2023-09-19T09:33:55;24.35;44.39
67005;HTU21D;53920;51.094;5.902;2023-09-19T09:36:38;24.71;43.12
67005;HTU21D;53920;51.094;5.902;2023-09-19T09:39:05;24.71;42.81
67005;HTU21D;53920;51.094;5.902;2023-09-19T09:41:47;24.74;43.07
67005;HTU21D;53920;51.094;5.902;2023-09-19T09:44:17;24.69;40.98
67005;HTU21D;53920;51.094;5.902;2023-09-19T09:46:48;24.46;42.69
67005;HTU21D;53920;51.094;5.902;2023-09-19T09:49:25;24.18;43.07
67005;HTU21D;53920;51.094;5.902;2023-09-19T09:52:02;24.24;43.31
67005;HTU21D;53920;51.094;5.902;2023-09-19T09:54:35;24.23;43.14
67005;HTU21D;53920;51.094;5.902;2023-09-19T09:57:11;23.95;43.06
67005;HTU21D;53920;51.094;5.902;2023-09-19T09:59:54;23.22;44.77
67005;HTU21D;53920;51.094;5.902;2023-09-19T10:02:35;23.14;45.23
67005;HTU21D;53920;51.094;5.902;2023-09-19T10:05:20;23.36;44.39
67005;HTU21D;53920;51.094;5.902;2023-09-19T10:07:46;23.62;44.09
67005;HTU21D;53920;51.094;5.902;2023-09-19T10:10:33;23.60;44.04
67005;HTU21D;53920;51.094;5.902;2023-09-19T10:13:10;23.57;44.66
67005;HTU21D;53920;51.094;5.902;2023-09-19T10:15:48;23.34;44.64
67005;HTU21D;53920;51.094;5.902;2023-09-19T10:18:23;22.86;45.75
67005;HTU21D;53920;51.094;5.902;2023-09-19T10:20:51;22.50;45.66
67005;HTU21D;53920;51.094;5.902;2023-09-19T10:23:21;22.46;46.40
67005;HTU21D;53920;51.094;5.902;2023-09-19T10:25:52;22.58;46.21
67005;HTU21D;53920;51.094;5.902;2023-09-19T10:28:20;22.50;45.99
67005;HTU21D;53920;51.094;5.902;2023-09-19T10:30:53;22.70;45.77
67005;HTU21D;53920;51.094;5.902;2023-09-19T10:33:21;22.81;45.72
67005;HTU21D;53920;51.094;5.902;2023-09-19T10:35:52;23.21;44.91
67005;HTU21D;53920;51.094;5.902;2023-09-19T10:38:26;23.94;43.59
67005;HTU21D;53920;51.094;5.902;2023-09-19T10:40:56;24.48;41.55
67005;HTU21D;53920;51.094;5.902;2023-09-19T10:43:30;24.46;42.20
67005;HTU21D;53920;51.094;5.902;2023-09-19T10:46:01;23.98;42.13
67005;HTU21D;53920;51.094;5.902;2023-09-19T10:48:31;23.92;41.16
67005;HTU21D;53920;51.094;5.902;2023-09-19T10:56:36;24.46;41.38
67005;HTU21D;53920;51.094;5.902;2023-09-19T10:59:06;24.51;40.73
67005;HTU21D;53920;51.094;5.902;2023-09-19T11:01:48;25.06;39.58
67005;HTU21D;53920;51.094;5.902;2023-09-19T11:04:26;25.43;38.73
67005;HTU21D;53920;51.094;5.902;2023-09-19T11:07:12;25.29;38.09
67005;HTU21D;53920;51.094;5.902;2023-09-19T11:09:51;25.64;38.75
67005;HTU21D;53920;51.094;5.902;2023-09-19T11:14:52;26.04;37.91
67005;HTU21D;53920;51.094;5.902;2023-09-19T11:30:35;25.74;36.98
67005;HTU21D;53920;51.094;5.902;2023-09-19T11:33:27;25.65;37.53
67005;HTU21D;53920;51.094;5.902;2023-09-19T11:36:12;25.72;37.09
67005;HTU21D;53920;51.094;5.902;2023-09-19T11:44:38;26.87;35.98
67005;HTU21D;53920;51.094;5.902;2023-09-19T11:46:53;27.29;35.37
67005;HTU21D;53920;51.094;5.902;2023-09-19T11:49:30;27.31;35.10
67005;HTU21D;53920;51.094;5.902;2023-09-19T11:52:00;27.01;34.92
67005;HTU21D;53920;51.094;5.902;2023-09-19T11:54:31;27.17;34.74
67005;HTU21D;53920;51.094;5.902;2023-09-19T11:56:59;27.24;33.03
67005;HTU21D;53920;51.094;5.902;2023-09-19T11:59:32;26.96;34.95
67005;HTU21D;53920;51.094;5.902;2023-09-19T12:02:04;26.81;35.26
67005;HTU21D;53920;51.094;5.902;2023-09-19T12:04:42;26.91;35.17
67005;HTU21D;53920;51.094;5.902;2023-09-19T12:07:11;26.72;35.15
67005;HTU21D;53920;51.094;5.902;2023-09-19T12:09:45;26.03;36.26
67005;HTU21D;53920;51.094;5.902;2023-09-19T12:12:26;26.06;36.77
67005;HTU21D;53920;51.094;5.902;2023-09-19T12:15:04;26.09;36.60
67005;HTU21D;53920;51.094;5.902;2023-09-19T12:17:39;25.71;36.79
67005;HTU21D;53920;51.094;5.902;2023-09-19T12:20:07;25.37;37.68
67005;HTU21D;53920;51.094;5.902;2023-09-19T12:22:44;25.31;38.00
67005;HTU21D;53920;51.094;5.902;2023-09-19T12:25:13;24.87;38.66
67005;HTU21D;53920;51.094;5.902;2023-09-19T12:27:49;24.29;40.08
67005;HTU21D;53920;51.094;5.902;2023-09-19T12:30:19;24.16;40.22
67005;HTU21D;53920;51.094;5.902;2023-09-19T12:32:47;23.95;40.77
67005;HTU21D;53920;51.094;5.902;2023-09-19T12:35:47;23.90;41.67
67005;HTU21D;53920;51.094;5.902;2023-09-19T12:38:26;24.28;41.11
67005;HTU21D;53920;51.094;5.902;2023-09-19T12:40:56;24.61;40.52
67005;HTU21D;53920;51.094;5.902;2023-09-19T12:43:24;24.57;40.50
67005;HTU21D;53920;51.094;5.902;2023-09-19T12:45:51;24.42;40.52
67005;HTU21D;53920;51.094;5.902;2023-09-19T12:48:26;24.31;40.94
67005;HTU21D;53920;51.094;5.902;2023-09-19T12:51:06;23.57;41.43
67005;HTU21D;53920;51.094;5.902;2023-09-19T12:53:41;23.39;42.42
67005;HTU21D;53920;51.094;5.902;2023-09-19T12:56:10;23.59;42.19
67005;HTU21D;53920;51.094;5.902;2023-09-19T12:58:53;23.47;42.28
67005;HTU21D;53920;51.094;5.902;2023-09-19T13:01:23;23.51;42.52
67005;HTU21D;53920;51.094;5.902;2023-09-19T13:04:21;23.46;42.63
67005;HTU21D;53920;51.094;5.902;2023-09-19T13:06:56;23.29;43.02
67005;HTU21D;53920;51.094;5.902;2023-09-19T13:09:27;23.26;43.32
67005;HTU21D;53920;51.094;5.902;2023-09-19T13:12:05;23.16;43.90
67005;HTU21D;53920;51.094;5.902;2023-09-19T13:15:14;22.85;44.36
67005;HTU21D;53920;51.094;5.902;2023-09-19T13:17:49;22.88;44.50
67005;HTU21D;53920;51.094;5.902;2023-09-19T13:20:25;22.56;45.19
67005;HTU21D;53920;51.094;5.902;2023-09-19T13:22:55;22.29;45.67
67005;HTU21D;53920;51.094;5.902;2023-09-19T13:25:25;22.31;45.94
67005;HTU21D;53920;51.094;5.902;2023-09-19T13:27:55;22.31;46.22
67005;HTU21D;53920;51.094;5.902;2023-09-19T13:30:24;22.13;46.30
67005;HTU21D;53920;51.094;5.902;2023-09-19T13:32:52;22.02;46.58
67005;HTU21D;53920;51.094;5.902;2023-09-19T13:35:22;21.96;46.86
67005;HTU21D;53920;51.094;5.902;2023-09-19T13:37:48;22.17;46.58
67005;HTU21D;53920;51.094;5.902;2023-09-19T13:40:17;22.50;46.09
67005;HTU21D;53920;51.094;5.902;2023-09-19T13:42:43;22.50;46.15
67005;HTU21D;53920;51.094;5.902;2023-09-19T13:45:09;22.39;45.67
67005;HTU21D;53920;51.094;5.902;2023-09-19T13:47:38;22.18;46.00
67005;HTU21D;53920;51.094;5.902;2023-09-19T13:50:05;22.33;45.83
67005;HTU21D;53920;51.094;5.902;2023-09-19T13:52:31;22.35;45.76
67005;HTU21D;53920;51.094;5.902;2023-09-19T13:54:58;22.27;46.04
67005;HTU21D;53920;51.094;5.902;2023-09-19T13:57:26;22.35;45.99
67005;HTU21D;53920;51.094;5.902;2023-09-19T13:59:52;22.31;46.35
67005;HTU21D;53920;51.094;5.902;2023-09-19T14:02:24;21.91;47.11
67005;HTU21D;53920;51.094;5.902;2023-09-19T14:04:51;21.87;47.46
67005;HTU21D;53920;51.094;5.902;2023-09-19T14:07:18;22.09;47.15
67005;HTU21D;53920;51.094;5.902;2023-09-19T14:09:45;22.25;46.95
67005;HTU21D;53920;51.094;5.902;2023-09-19T14:12:12;22.37;46.80
67005;HTU21D;53920;51.094;5.902;2023-09-19T14:14:38;22.43;46.71
67005;HTU21D;53920;51.094;5.902;2023-09-19T14:17:04;22.26;46.75
67005;HTU21D;53920;51.094;5.902;2023-09-19T14:19:30;22.07;47.07
67005;HTU21D;53920;51.094;5.902;2023-09-19T14:21:56;21.85;47.47
67005;HTU21D;53920;51.094;5.902;2023-09-19T14:24:23;21.84;47.69
67005;HTU21D;53920;51.094;5.902;2023-09-19T14:26:49;21.93;47.66
67005;HTU21D;53920;51.094;5.902;2023-09-19T14:29:16;21.87;47.73
67005;HTU21D;53920;51.094;5.902;2023-09-19T14:31:43;21.70;47.98
67005;HTU21D;53920;51.094;5.902;2023-09-19T14:34:09;21.74;47.88
67005;HTU21D;53920;51.094;5.902;2023-09-19T14:36:36;21.40;48.57
67005;HTU21D;53920;51.094;5.902;2023-09-19T14:39:05;21.27;49.06
67005;HTU21D;53920;51.094;5.902;2023-09-19T14:41:31;21.21;49.13
67005;HTU21D;53920;51.094;5.902;2023-09-19T14:43:57;21.25;49.26
67005;HTU21D;53920;51.094;5.902;2023-09-19T14:46:23;21.37;49.31
67005;HTU21D;53920;51.094;5.902;2023-09-19T14:48:53;21.54;49.18
67005;HTU21D;53920;51.094;5.902;2023-09-19T14:51:19;21.48;49.21
67005;HTU21D;53920;51.094;5.902;2023-09-19T14:53:45;21.73;48.83
67005;HTU21D;53920;51.094;5.902;2023-09-19T14:56:13;21.62;48.97
67005;HTU21D;53920;51.094;5.902;2023-09-19T14:58:44;21.55;49.01
67005;HTU21D;53920;51.094;5.902;2023-09-19T15:01:12;21.40;49.24
67005;HTU21D;53920;51.094;5.902;2023-09-19T15:03:42;21.45;49.21
67005;HTU21D;53920;51.094;5.902;2023-09-19T15:06:10;21.45;49.37
67005;HTU21D;53920;51.094;5.902;2023-09-19T15:08:41;21.43;49.60
67005;HTU21D;53920;51.094;5.902;2023-09-19T15:11:11;21.31;49.89
67005;HTU21D;53920;51.094;5.902;2023-09-19T15:13:39;21.62;49.23
67005;HTU21D;53920;51.094;5.902;2023-09-19T15:16:06;21.77;49.04
67005;HTU21D;53920;51.094;5.902;2023-09-19T15:18:45;21.90;48.83
67005;HTU21D;53920;51.094;5.902;2023-09-19T15:21:13;22.07;48.65
67005;HTU21D;53920;51.094;5.902;2023-09-19T15:23:41;22.14;48.47
67005;HTU21D;53920;51.094;5.902;2023-09-19T15:26:09;21.99;48.34
67005;HTU21D;53920;51.094;5.902;2023-09-19T15:28:37;21.88;48.49
67005;HTU21D;53920;51.094;5.902;2023-09-19T15:31:04;21.79;48.70
67005;HTU21D;53920;51.094;5.902;2023-09-19T15:33:30;21.73;48.89
67005;HTU21D;53920;51.094;5.902;2023-09-19T15:36:04;21.82;48.98
67005;HTU21D;53920;51.094;5.902;2023-09-19T15:38:31;21.79;49.10
67005;HTU21D;53920;51.094;5.902;2023-09-19T15:40:58;21.66;49.40
67005;HTU21D;53920;51.094;5.902;2023-09-19T15:43:27;21.55;49.55
67005;HTU21D;53920;51.094;5.902;2023-09-19T15:45:56;21.31;49.78
67005;HTU21D;53920;51.094;5.902;2023-09-19T15:48:21;21.20;49.95
67005;HTU21D;53920;51.094;5.902;2023-09-19T15:50:47;21.25;49.93
67005;HTU21D;53920;51.094;5.902;2023-09-19T15:53:13;21.15;50.18
67005;HTU21D;53920;51.094;5.902;2023-09-19T15:55:39;21.09;50.26
67005;HTU21D;53920;51.094;5.902;2023-09-19T15:58:06;21.10;50.30
67005;HTU21D;53920;51.094;5.902;2023-09-19T16:00:32;21.11;50.40
67005;HTU21D;53920;51.094;5.902;2023-09-19T16:03:02;21.01;50.85
67005;HTU21D;53920;51.094;5.902;2023-09-19T16:05:35;20.89;51.00
67005;HTU21D;53920;51.094;5.902;2023-09-19T16:08:08;20.90;51.18
67005;HTU21D;53920;51.094;5.902;2023-09-19T16:10:35;20.94;51.33
67005;HTU21D;53920;51.094;5.902;2023-09-19T16:13:03;20.95;51.39
67005;HTU21D;53920;51.094;5.902;2023-09-19T16:15:29;20.89;51.46
67005;HTU21D;53920;51.094;5.902;2023-09-19T16:17:55;20.91;51.58
67005;HTU21D;53920;51.094;5.902;2023-09-19T16:20:20;20.95;51.65
67005;HTU21D;53920;51.094;5.902;2023-09-19T16:22:48;20.95;51.65
67005;HTU21D;53920;51.094;5.902;2023-09-19T16:25:14;20.94;51.88
67005;HTU21D;53920;51.094;5.902;2023-09-19T16:27:40;20.93;51.87
67005;HTU21D;53920;51.094;5.902;2023-09-19T16:30:07;20.92;51.92
67005;HTU21D;53920;51.094;5.902;2023-09-19T16:32:35;20.77;52.06
67005;HTU21D;53920;51.094;5.902;2023-09-19T16:35:02;20.78;52.01
67005;HTU21D;53920;51.094;5.902;2023-09-19T16:37:28;20.90;51.83
67005;HTU21D;53920;51.094;5.902;2023-09-19T16:39:54;20.88;52.06
67005;HTU21D;53920;51.094;5.902;2023-09-19T16:42:20;20.92;51.99
67005;HTU21D;53920;51.094;5.902;2023-09-19T16:44:46;20.74;52.40
67005;HTU21D;53920;51.094;5.902;2023-09-19T16:47:13;20.71;52.60
67005;HTU21D;53920;51.094;5.902;2023-09-19T16:49:38;20.69;52.54
67005;HTU21D;53920;51.094;5.902;2023-09-19T16:52:04;20.64;52.59